Time;durP1;ratioP1;P1;durP2;ratioP2;P2;SDS_P1;SDS_P2;PMS_P1;PMS_P2;Temp;Humidity;BMP_temperature;BMP_pressure;BME280_temperature;BME280_humidity;BME280_pressure;Samples;Min_cycle;Max_cycle;Signal;HPM_P1;HPM_P2
2023/07/20 00:00:53;;;;;;;10.23;7.30;;;;;;;;;;4969494;28;25071;-65
2023/07/20 00:03:24;;;;;;;12.05;6.90;;;;;;;;;;4969211;28;25054;-66
2023/07/20 00:05:50;;;;;;;9.43;6.00;;;;;;;;;;4969409;28;25066;-65
2023/07/20 00:08:17;;;;;;;11.23;6.45;;;;;;;;;;4971547;28;25058;-67
2023/07/20 00:10:43;;;;;;;11.57;6.57;;;;;;;;;;4985753;28;25141;-68
2023/07/20 00:13:09;;;;;;;10.38;6.32;;;;;;;;;;4989234;28;25061;-67
2023/07/20 00:15:36;;;;;;;9.75;5.88;;;;;;;;;;4983118;28;25055;-68
2023/07/20 00:18:02;;;;;;;16.92;7.25;;;;;;;;;;4970487;28;25080;-66
2023/07/20 00:20:27;;;;;;;12.68;7.97;;;;;;;;;;4970980;28;25056;-70
2023/07/20 00:22:54;;;;;;;11.15;7.10;;;;;;;;;;4969251;28;25055;-67
2023/07/20 00:25:20;;;;;;;10.05;7.20;;;;;;;;;;4970134;28;25088;-68
2023/07/20 00:27:46;;;;;;;10.07;7.07;;;;;;;;;;4977107;28;25129;-66
2023/07/20 00:30:13;;;;;;;9.45;6.80;;;;;;;;;;4990207;28;25100;-67
2023/07/20 00:32:39;;;;;;;16.23;8.45;;;;;;;;;;4992596;28;25096;-66
2023/07/20 00:35:05;;;;;;;12.02;8.13;;;;;;;;;;4987863;28;25097;-67
2023/07/20 00:37:31;;;;;;;15.25;8.48;;;;;;;;;;4986259;28;25074;-68
2023/07/20 00:39:57;;;;;;;14.85;8.73;;;;;;;;;;4990952;28;25121;-67
2023/07/20 00:42:23;;;;;;;17.40;10.40;;;;;;;;;;4986726;28;25073;-66
2023/07/20 00:44:49;;;;;;;16.55;10.10;;;;;;;;;;4989421;28;25098;-68
2023/07/20 00:47:15;;;;;;;15.02;10.20;;;;;;;;;;4990356;28;25064;-66
2023/07/20 00:49:41;;;;;;;15.90;10.27;;;;;;;;;;4987396;28;25054;-67
2023/07/20 00:52:07;;;;;;;22.13;10.05;;;;;;;;;;4989075;28;25076;-67
2023/07/20 00:54:34;;;;;;;18.45;10.45;;;;;;;;;;4988131;28;25151;-66
2023/07/20 00:57:01;;;;;;;20.83;10.32;;;;;;;;;;4986487;28;25055;-68
2023/07/20 00:59:28;;;;;;;21.67;10.75;;;;;;;;;;4990663;28;25152;-67
2023/07/20 01:01:54;;;;;;;16.65;10.63;;;;;;;;;;4979244;28;25152;-66
2023/07/20 01:04:21;;;;;;;17.73;10.65;;;;;;;;;;4987438;28;25048;-67
2023/07/20 01:07:10;;;;;;;23.25;11.88;;;;;;;;;;4987692;28;25075;-68
2023/07/20 01:09:36;;;;;;;19.75;11.68;;;;;;;;;;4979532;28;25059;-68
2023/07/20 01:12:19;;;;;;;20.42;12.40;;;;;;;;;;4987238;28;25060;-68
2023/07/20 01:14:45;;;;;;;21.40;12.38;;;;;;;;;;4990296;28;25074;-69
2023/07/20 01:17:12;;;;;;;18.88;12.20;;;;;;;;;;4987723;28;25092;-68
2023/07/20 01:19:38;;;;;;;21.48;12.57;;;;;;;;;;4987569;28;25078;-67
2023/07/20 01:22:13;;;;;;;18.30;11.95;;;;;;;;;;4982435;28;25121;-67
2023/07/20 01:24:50;;;;;;;17.45;12.00;;;;;;;;;;4989810;28;25062;-68
2023/07/20 01:27:24;;;;;;;19.55;12.38;;;;;;;;;;4986210;28;25133;-67
2023/07/20 01:29:59;;;;;;;19.27;11.93;;;;;;;;;;4989387;28;25105;-68
2023/07/20 01:32:26;;;;;;;21.13;13.00;;;;;;;;;;4989525;28;25133;-70
2023/07/20 01:34:53;;;;;;;19.08;13.52;;;;;;;;;;4985613;28;25082;-68
2023/07/20 01:37:21;;;;;;;18.13;12.48;;;;;;;;;;4987852;28;25087;-68
2023/07/20 01:39:47;;;;;;;22.63;13.27;;;;;;;;;;4984229;28;25086;-66
2023/07/20 01:42:13;;;;;;;24.65;13.93;;;;;;;;;;4988102;28;25052;-67
2023/07/20 01:44:39;;;;;;;19.20;12.73;;;;;;;;;;4988089;28;25069;-67
2023/07/20 01:47:05;;;;;;;21.98;12.88;;;;;;;;;;4986820;28;25064;-67
2023/07/20 01:49:31;;;;;;;19.65;13.38;;;;;;;;;;4987480;28;25083;-68
2023/07/20 01:51:57;;;;;;;20.40;12.80;;;;;;;;;;4984173;28;25063;-67
2023/07/20 01:54:23;;;;;;;19.13;13.00;;;;;;;;;;4983995;28;25153;-68
2023/07/20 01:56:49;;;;;;;20.13;13.10;;;;;;;;;;4976974;28;25113;-68
2023/07/20 01:59:15;;;;;;;19.52;11.68;;;;;;;;;;4982548;28;25042;-67
2023/07/20 02:01:41;;;;;;;16.08;11.65;;;;;;;;;;4993912;28;25148;-68
2023/07/20 02:04:07;;;;;;;15.55;11.27;;;;;;;;;;4989227;28;25127;-69
2023/07/20 02:06:33;;;;;;;19.70;12.15;;;;;;;;;;4991872;28;25071;-68
2023/07/20 02:08:59;;;;;;;19.25;12.80;;;;;;;;;;4994567;28;25135;-70
2023/07/20 02:11:25;;;;;;;16.05;11.43;;;;;;;;;;5002585;28;25107;-70
2023/07/20 02:13:51;;;;;;;16.33;11.52;;;;;;;;;;4996240;28;25072;-68
2023/07/20 02:16:17;;;;;;;22.20;12.63;;;;;;;;;;4996052;28;25058;-67
2023/07/20 02:18:43;;;;;;;14.88;10.43;;;;;;;;;;4994306;28;25054;-69
2023/07/20 02:21:09;;;;;;;15.32;10.80;;;;;;;;;;5004405;28;25114;-68
2023/07/20 02:23:35;;;;;;;15.60;11.60;;;;;;;;;;4992947;28;25174;-68
2023/07/20 02:26:01;;;;;;;16.40;10.73;;;;;;;;;;4993564;28;25114;-70
2023/07/20 02:28:27;;;;;;;19.23;10.48;;;;;;;;;;4992937;28;25050;-68
2023/07/20 02:30:53;;;;;;;12.30;9.70;;;;;;;;;;4994422;28;25125;-67
2023/07/20 02:33:20;;;;;;;16.45;10.60;;;;;;;;;;4993683;28;25133;-68
2023/07/20 02:35:46;;;;;;;12.38;8.95;;;;;;;;;;4994769;28;25099;-69
2023/07/20 02:38:12;;;;;;;17.88;8.45;;;;;;;;;;4987389;28;25064;-70
2023/07/20 02:40:38;;;;;;;11.00;8.60;;;;;;;;;;4991557;28;25058;-69
2023/07/20 02:43:04;;;;;;;10.13;6.90;;;;;;;;;;4992628;28;25089;-68
2023/07/20 02:45:30;;;;;;;10.77;8.38;;;;;;;;;;4995551;28;25078;-69
2023/07/20 02:47:56;;;;;;;11.52;7.70;;;;;;;;;;4990434;28;25067;-68
2023/07/20 02:50:22;;;;;;;7.30;6.50;;;;;;;;;;4993276;28;25058;-68
2023/07/20 02:52:50;;;;;;;7.95;6.40;;;;;;;;;;4986171;28;25239;-68
2023/07/20 02:55:15;;;;;;;7.93;5.68;;;;;;;;;;4985296;28;25070;-67
2023/07/20 02:57:42;;;;;;;7.43;6.50;;;;;;;;;;4992890;28;25093;-70
2023/07/20 03:00:08;;;;;;;8.85;5.75;;;;;;;;;;4994469;28;25139;-70
2023/07/20 03:02:34;;;;;;;10.43;6.85;;;;;;;;;;4991823;28;25089;-69
2023/07/20 03:05:00;;;;;;;11.13;7.28;;;;;;;;;;4994491;28;25081;-70
2023/07/20 03:07:27;;;;;;;10.35;6.88;;;;;;;;;;4993731;28;25107;-68
2023/07/20 03:09:53;;;;;;;8.93;6.45;;;;;;;;;;4983813;28;25068;-68
2023/07/20 03:12:19;;;;;;;9.65;7.05;;;;;;;;;;4974754;28;25061;-67
2023/07/20 03:14:45;;;;;;;13.73;6.13;;;;;;;;;;4970499;28;25063;-68
2023/07/20 03:17:11;;;;;;;8.10;6.68;;;;;;;;;;4970634;28;25089;-67
2023/07/20 03:19:37;;;;;;;11.30;7.03;;;;;;;;;;4955358;28;25157;-69
2023/07/20 03:22:03;;;;;;;9.75;6.93;;;;;;;;;;4969708;28;25169;-70
2023/07/20 03:24:29;;;;;;;9.38;6.78;;;;;;;;;;4971958;28;25087;-68
2023/07/20 03:26:55;;;;;;;8.18;6.57;;;;;;;;;;4970148;28;25120;-70
2023/07/20 03:29:20;;;;;;;10.10;7.30;;;;;;;;;;4990335;28;25082;-68
2023/07/20 03:31:46;;;;;;;9.90;6.78;;;;;;;;;;4978872;28;25067;-69
2023/07/20 03:34:12;;;;;;;9.20;7.07;;;;;;;;;;4970446;28;25144;-69
2023/07/20 03:36:38;;;;;;;7.95;6.70;;;;;;;;;;4969322;28;25088;-69
2023/07/20 03:39:04;;;;;;;7.55;6.70;;;;;;;;;;4969138;28;25074;-67
2023/07/20 03:41:30;;;;;;;10.32;6.47;;;;;;;;;;4991355;28;25137;-68
2023/07/20 03:43:56;;;;;;;10.75;7.00;;;;;;;;;;4968469;28;25366;-69
2023/07/20 03:46:22;;;;;;;11.85;6.93;;;;;;;;;;4966587;28;25130;-67
2023/07/20 03:48:48;;;;;;;10.50;6.68;;;;;;;;;;4969254;28;25079;-67
2023/07/20 03:51:14;;;;;;;9.52;6.50;;;;;;;;;;4970506;28;25153;-69
2023/07/20 03:53:40;;;;;;;11.32;7.65;;;;;;;;;;4971233;28;25144;-67
2023/07/20 03:56:06;;;;;;;11.93;7.93;;;;;;;;;;4969907;28;25063;-68
2023/07/20 03:58:32;;;;;;;13.10;7.20;;;;;;;;;;4977794;28;25131;-69
2023/07/20 04:00:58;;;;;;;8.32;7.32;;;;;;;;;;4974146;28;25068;-70
2023/07/20 04:03:26;;;;;;;7.68;6.03;;;;;;;;;;4969766;28;25192;-67
2023/07/20 04:05:53;;;;;;;8.65;6.40;;;;;;;;;;4972930;28;25057;-68
2023/07/20 04:08:19;;;;;;;9.90;6.78;;;;;;;;;;4999909;28;25579;-68
2023/07/20 04:10:45;;;;;;;9.68;6.78;;;;;;;;;;4988841;28;25047;-68
2023/07/20 04:13:11;;;;;;;11.05;7.72;;;;;;;;;;4991412;28;25091;-70
2023/07/20 04:15:37;;;;;;;9.05;6.50;;;;;;;;;;4993843;28;25153;-68
2023/07/20 04:18:04;;;;;;;9.13;6.93;;;;;;;;;;4978379;28;25061;-68
2023/07/20 04:20:30;;;;;;;8.70;7.43;;;;;;;;;;4993957;28;25150;-68
2023/07/20 04:22:56;;;;;;;12.00;7.20;;;;;;;;;;5004432;28;25155;-69
2023/07/20 04:25:22;;;;;;;9.13;6.22;;;;;;;;;;4990603;28;25081;-68
2023/07/20 04:27:48;;;;;;;10.10;7.00;;;;;;;;;;4979759;28;25094;-67
2023/07/20 04:30:15;;;;;;;11.35;7.15;;;;;;;;;;4986553;28;25054;-67
2023/07/20 04:32:44;;;;;;;9.10;6.63;;;;;;;;;;4989021;28;25103;-68
2023/07/20 04:35:10;;;;;;;9.48;6.88;;;;;;;;;;4970099;28;25094;-68
2023/07/20 04:37:36;;;;;;;8.40;6.80;;;;;;;;;;4969044;28;25181;-68
2023/07/20 04:40:03;;;;;;;11.98;8.80;;;;;;;;;;4973352;28;25140;-71
2023/07/20 04:42:29;;;;;;;9.07;7.35;;;;;;;;;;4965979;28;25097;-69
2023/07/20 04:44:55;;;;;;;10.23;7.40;;;;;;;;;;4969053;28;25143;-67
2023/07/20 04:47:21;;;;;;;10.65;7.15;;;;;;;;;;4969183;28;25073;-68
2023/07/20 04:49:47;;;;;;;10.13;5.78;;;;;;;;;;4988750;28;25060;-67
2023/07/20 04:52:12;;;;;;;9.88;5.78;;;;;;;;;;4990456;28;25085;-69
2023/07/20 04:54:38;;;;;;;8.52;5.97;;;;;;;;;;4994532;28;25157;-68
2023/07/20 04:57:10;;;;;;;7.93;5.70;;;;;;;;;;4996535;28;25083;-69
2023/07/20 04:59:36;;;;;;;6.35;5.00;;;;;;;;;;4969453;28;25117;-68
2023/07/20 05:02:02;;;;;;;5.95;4.95;;;;;;;;;;4967940;28;25095;-68
2023/07/20 05:04:28;;;;;;;4.82;3.95;;;;;;;;;;4982140;28;25067;-68
2023/07/20 05:06:54;;;;;;;6.00;4.03;;;;;;;;;;4989628;28;25066;-68
2023/07/20 05:09:20;;;;;;;4.45;3.33;;;;;;;;;;4988756;28;25047;-68
2023/07/20 05:11:47;;;;;;;6.30;3.50;;;;;;;;;;4981695;28;25137;-68
2023/07/20 05:14:13;;;;;;;5.70;4.03;;;;;;;;;;4972638;28;25146;-69
2023/07/20 05:16:39;;;;;;;4.63;3.15;;;;;;;;;;4977028;28;25085;-70
2023/07/20 05:19:05;;;;;;;3.38;2.50;;;;;;;;;;4982502;28;25060;-68
2023/07/20 05:21:31;;;;;;;3.75;3.17;;;;;;;;;;4990061;28;25093;-68
2023/07/20 05:23:57;;;;;;;2.60;2.40;;;;;;;;;;4985995;28;25073;-68
2023/07/20 05:26:23;;;;;;;3.85;2.28;;;;;;;;;;4985104;28;25093;-68
2023/07/20 05:28:49;;;;;;;2.97;2.30;;;;;;;;;;4985985;28;25160;-70
2023/07/20 05:31:15;;;;;;;2.10;1.70;;;;;;;;;;4975135;28;25085;-68
2023/07/20 05:33:41;;;;;;;3.63;2.40;;;;;;;;;;4968194;28;25067;-70
2023/07/20 05:36:07;;;;;;;2.28;1.90;;;;;;;;;;4967167;28;25058;-67
2023/07/20 05:38:33;;;;;;;2.92;2.55;;;;;;;;;;4960903;28;25070;-67
2023/07/20 05:41:01;;;;;;;4.88;2.95;;;;;;;;;;4978686;28;25077;-67
2023/07/20 05:43:27;;;;;;;3.42;2.10;;;;;;;;;;4969816;28;25089;-68
2023/07/20 05:45:53;;;;;;;3.47;2.28;;;;;;;;;;4977795;28;25077;-68
2023/07/20 05:48:19;;;;;;;5.38;2.25;;;;;;;;;;4994219;28;25074;-68
2023/07/20 05:50:45;;;;;;;4.20;2.00;;;;;;;;;;4986921;28;25060;-68
2023/07/20 05:53:11;;;;;;;3.35;2.08;;;;;;;;;;4981664;28;25048;-68
2023/07/20 05:55:39;;;;;;;1.90;1.75;;;;;;;;;;4985594;28;25109;-68
2023/07/20 05:58:05;;;;;;;1.98;1.70;;;;;;;;;;4983025;28;25139;-69
2023/07/20 06:00:31;;;;;;;1.77;1.25;;;;;;;;;;4976783;28;25054;-68
2023/07/20 06:02:57;;;;;;;2.08;1.27;;;;;;;;;;4963368;28;25081;-69
2023/07/20 06:05:23;;;;;;;3.33;1.58;;;;;;;;;;4967476;28;25164;-68
2023/07/20 06:07:49;;;;;;;1.85;1.50;;;;;;;;;;4985703;28;25103;-68
2023/07/20 06:10:16;;;;;;;4.50;1.85;;;;;;;;;;4984133;28;25059;-68
2023/07/20 06:12:41;;;;;;;1.85;1.60;;;;;;;;;;4976017;28;25065;-69
2023/07/20 06:15:25;;;;;;;2.85;1.27;;;;;;;;;;4972312;28;25083;-68
2023/07/20 06:17:50;;;;;;;2.55;1.00;;;;;;;;;;4965067;28;25079;-66
2023/07/20 06:20:16;;;;;;;1.90;1.40;;;;;;;;;;4972781;28;25154;-68
2023/07/20 06:22:42;;;;;;;1.52;1.30;;;;;;;;;;4970187;28;25156;-69
2023/07/20 06:25:09;;;;;;;3.10;1.25;;;;;;;;;;4976471;28;25117;-68
2023/07/20 06:27:35;;;;;;;4.38;1.55;;;;;;;;;;4968313;28;25075;-68
2023/07/20 06:30:00;;;;;;;2.08;1.20;;;;;;;;;;4969543;28;25066;-68
2023/07/20 06:32:26;;;;;;;2.17;1.40;;;;;;;;;;4970507;28;25056;-69
2023/07/20 06:34:52;;;;;;;3.05;1.70;;;;;;;;;;4962429;28;25114;-68
2023/07/20 06:37:19;;;;;;;3.35;1.67;;;;;;;;;;4967397;28;25093;-68
2023/07/20 06:39:46;;;;;;;2.13;1.92;;;;;;;;;;4968085;28;25047;-68
2023/07/20 06:42:12;;;;;;;4.72;1.80;;;;;;;;;;4968981;28;25140;-68
2023/07/20 06:44:38;;;;;;;2.47;2.00;;;;;;;;;;4969754;28;25052;-68
2023/07/20 06:47:04;;;;;;;2.28;1.73;;;;;;;;;;4970225;28;25082;-68
2023/07/20 06:49:30;;;;;;;2.60;1.48;;;;;;;;;;4964224;28;25077;-68
2023/07/20 06:51:56;;;;;;;1.73;1.40;;;;;;;;;;4970916;28;25115;-68
2023/07/20 06:54:22;;;;;;;4.20;1.58;;;;;;;;;;4973020;28;25144;-66
2023/07/20 06:56:48;;;;;;;5.07;1.88;;;;;;;;;;4973268;28;25057;-68
2023/07/20 06:59:14;;;;;;;2.35;1.70;;;;;;;;;;4995121;28;25070;-69
2023/07/20 07:01:40;;;;;;;3.65;1.80;;;;;;;;;;4975321;28;25074;-67
2023/07/20 07:04:06;;;;;;;3.75;2.17;;;;;;;;;;4973529;28;25065;-67
2023/07/20 07:06:32;;;;;;;3.90;1.90;;;;;;;;;;4980532;28;25070;-67
2023/07/20 07:08:58;;;;;;;6.20;2.38;;;;;;;;;;5006865;28;25079;-68
2023/07/20 07:11:24;;;;;;;2.70;1.60;;;;;;;;;;4982991;28;25089;-68
2023/07/20 07:13:51;;;;;;;2.95;2.33;;;;;;;;;;4972929;28;25073;-67
2023/07/20 07:16:19;;;;;;;2.10;1.70;;;;;;;;;;4976198;28;25055;-66
2023/07/20 07:18:48;;;;;;;1.42;1.10;;;;;;;;;;4974532;28;25118;-67
2023/07/20 07:21:14;;;;;;;2.75;1.10;;;;;;;;;;4977190;28;25082;-67
2023/07/20 07:23:40;;;;;;;3.63;1.60;;;;;;;;;;4981035;28;25061;-67
2023/07/20 07:26:06;;;;;;;1.17;1.08;;;;;;;;;;4973093;28;25026;-68
2023/07/20 07:28:32;;;;;;;1.40;1.20;;;;;;;;;;4964643;28;25127;-67
2023/07/20 07:30:58;;;;;;;3.42;1.50;;;;;;;;;;4970782;28;25071;-67
2023/07/20 07:33:24;;;;;;;2.33;1.45;;;;;;;;;;4971624;28;25075;-68
2023/07/20 07:35:54;;;;;;;3.22;1.20;;;;;;;;;;4969306;28;25086;-68
2023/07/20 07:38:20;;;;;;;2.40;1.60;;;;;;;;;;4989735;28;25058;-69
2023/07/20 07:40:46;;;;;;;4.90;1.63;;;;;;;;;;4986433;28;25071;-67
2023/07/20 07:43:16;;;;;;;1.90;1.67;;;;;;;;;;4962123;28;25156;-66
2023/07/20 07:45:42;;;;;;;3.70;2.15;;;;;;;;;;4966201;28;25202;-67
2023/07/20 07:48:11;;;;;;;3.08;1.65;;;;;;;;;;4967816;28;25152;-65
2023/07/20 07:50:37;;;;;;;4.05;1.63;;;;;;;;;;4965011;28;25073;-67
2023/07/20 07:53:03;;;;;;;2.33;1.83;;;;;;;;;;4966992;28;25049;-67
2023/07/20 07:55:29;;;;;;;3.22;2.10;;;;;;;;;;4966192;28;25115;-66
2023/07/20 07:57:55;;;;;;;4.47;2.03;;;;;;;;;;4965178;28;25150;-67
2023/07/20 08:00:21;;;;;;;2.28;1.70;;;;;;;;;;4967529;28;25150;-66
2023/07/20 08:02:50;;;;;;;3.60;1.90;;;;;;;;;;4966290;28;25176;-67
2023/07/20 08:05:16;;;;;;;3.90;2.00;;;;;;;;;;4986093;28;25084;-67
2023/07/20 08:07:43;;;;;;;3.65;2.20;;;;;;;;;;4985749;28;25129;-68
2023/07/20 08:10:09;;;;;;;1.88;1.67;;;;;;;;;;4983886;28;25093;-67
2023/07/20 08:12:35;;;;;;;2.80;2.20;;;;;;;;;;4984978;28;25066;-67
2023/07/20 08:15:01;;;;;;;3.03;2.40;;;;;;;;;;4986244;28;25144;-68
2023/07/20 08:17:27;;;;;;;6.20;2.30;;;;;;;;;;4986010;28;25060;-66
2023/07/20 08:19:53;;;;;;;3.15;1.80;;;;;;;;;;4987490;28;25064;-66
2023/07/20 08:22:19;;;;;;;4.38;1.90;;;;;;;;;;4985443;28;25069;-67
2023/07/20 08:24:45;;;;;;;2.50;2.00;;;;;;;;;;4988596;28;25061;-67
2023/07/20 08:27:11;;;;;;;2.30;1.92;;;;;;;;;;4985947;28;25150;-68
2023/07/20 08:29:37;;;;;;;3.47;2.28;;;;;;;;;;4986187;28;25068;-67
2023/07/20 08:32:04;;;;;;;2.47;1.95;;;;;;;;;;4987294;28;25170;-68
2023/07/20 08:34:30;;;;;;;3.45;1.63;;;;;;;;;;4985185;28;25064;-67
2023/07/20 08:36:56;;;;;;;1.70;1.60;;;;;;;;;;4985222;28;25067;-68
2023/07/20 08:39:22;;;;;;;1.65;1.55;;;;;;;;;;4987336;28;25154;-68
2023/07/20 08:41:49;;;;;;;1.52;1.42;;;;;;;;;;4987014;28;25133;-67
2023/07/20 08:44:15;;;;;;;4.57;1.48;;;;;;;;;;4987655;28;25074;-67
2023/07/20 08:46:42;;;;;;;2.05;1.10;;;;;;;;;;4959913;28;25073;-66
2023/07/20 08:49:08;;;;;;;7.47;1.92;;;;;;;;;;4986101;28;25055;-67
2023/07/20 08:51:34;;;;;;;3.30;1.48;;;;;;;;;;4986159;28;25056;-68
2023/07/20 08:54:00;;;;;;;3.08;1.60;;;;;;;;;;4986057;28;25066;-66
2023/07/20 08:56:26;;;;;;;1.65;1.48;;;;;;;;;;4986790;28;25166;-65
2023/07/20 08:58:53;;;;;;;2.83;1.85;;;;;;;;;;4986498;28;25091;-66
2023/07/20 09:01:23;;;;;;;2.63;1.70;;;;;;;;;;4999870;28;25064;-67
2023/07/20 09:03:49;;;;;;;3.60;1.63;;;;;;;;;;4983377;28;25068;-66
2023/07/20 09:06:15;;;;;;;3.75;1.85;;;;;;;;;;4971760;28;25200;-67
2023/07/20 09:08:42;;;;;;;5.78;2.25;;;;;;;;;;4967160;28;25120;-67
2023/07/20 09:11:08;;;;;;;6.03;1.70;;;;;;;;;;4989814;28;25074;-67
2023/07/20 09:13:34;;;;;;;2.85;1.65;;;;;;;;;;4973025;28;25127;-66
2023/07/20 09:16:00;;;;;;;2.75;1.20;;;;;;;;;;4966177;28;25055;-65
2023/07/20 09:18:27;;;;;;;2.97;1.17;;;;;;;;;;4965630;28;25050;-67
2023/07/20 09:20:53;;;;;;;4.65;1.15;;;;;;;;;;4964932;28;25066;-66
2023/07/20 09:23:19;;;;;;;3.15;1.13;;;;;;;;;;4967414;28;25075;-66
2023/07/20 09:25:50;;;;;;;10.30;1.42;;;;;;;;;;4996052;28;25049;-67
2023/07/20 09:28:16;;;;;;;4.13;1.25;;;;;;;;;;4994374;28;25259;-66
2023/07/20 09:30:42;;;;;;;1.35;1.10;;;;;;;;;;4984714;28;25081;-66
2023/07/20 09:33:18;;;;;;;2.33;1.10;;;;;;;;;;4986485;28;25105;-65
2023/07/20 09:35:44;;;;;;;2.58;1.65;;;;;;;;;;4987359;28;25073;-66
2023/07/20 09:38:10;;;;;;;3.72;1.33;;;;;;;;;;4987278;28;25151;-67
2023/07/20 09:40:40;;;;;;;2.28;1.20;;;;;;;;;;4988254;28;25077;-65
2023/07/20 09:43:08;;;;;;;1.65;1.38;;;;;;;;;;4987222;28;25066;-67
2023/07/20 09:45:36;;;;;;;1.23;1.13;;;;;;;;;;4978739;28;25080;-66
2023/07/20 09:48:06;;;;;;;1.48;1.38;;;;;;;;;;4971790;28;25166;-65
2023/07/20 09:50:32;;;;;;;1.80;1.20;;;;;;;;;;4966318;28;25074;-65
2023/07/20 09:52:59;;;;;;;2.00;1.23;;;;;;;;;;4977333;28;25061;-65
2023/07/20 09:55:26;;;;;;;1.77;1.20;;;;;;;;;;4977217;28;25128;-66
2023/07/20 09:57:55;;;;;;;0.77;0.77;;;;;;;;;;4965293;28;25056;-65
2023/07/20 10:00:21;;;;;;;1.55;1.42;;;;;;;;;;4968053;28;25084;-65
2023/07/20 10:02:50;;;;;;;1.75;1.38;;;;;;;;;;4967716;28;25085;-66
2023/07/20 10:05:16;;;;;;;4.70;1.15;;;;;;;;;;4966901;28;25081;-65
2023/07/20 10:07:48;;;;;;;3.55;1.42;;;;;;;;;;4966711;28;25122;-65
2023/07/20 10:10:17;;;;;;;1.70;1.60;;;;;;;;;;4980342;28;25167;-66
2023/07/20 10:12:45;;;;;;;3.10;1.30;;;;;;;;;;4993081;28;25051;-65
2023/07/20 10:15:12;;;;;;;1.33;1.23;;;;;;;;;;4983292;28;25065;-65
2023/07/20 10:17:41;;;;;;;3.42;1.45;;;;;;;;;;4983997;28;25112;-65
2023/07/20 10:20:07;;;;;;;2.65;2.10;;;;;;;;;;4984942;28;25092;-65
2023/07/20 10:22:36;;;;;;;5.10;2.13;;;;;;;;;;4988641;28;25094;-67
2023/07/20 10:25:04;;;;;;;2.72;1.77;;;;;;;;;;4984657;28;25067;-65
2023/07/20 10:27:30;;;;;;;2.83;1.75;;;;;;;;;;4988624;28;25059;-65
2023/07/20 10:29:58;;;;;;;3.58;1.63;;;;;;;;;;4987644;28;25067;-64
2023/07/20 10:32:26;;;;;;;4.32;1.65;;;;;;;;;;4973494;28;25070;-66
2023/07/20 10:34:55;;;;;;;3.03;2.20;;;;;;;;;;4973159;28;25078;-64
2023/07/20 10:37:41;;;;;;;3.70;1.63;;;;;;;;;;4970464;28;25094;-65
2023/07/20 10:40:39;;;;;;;2.33;2.13;;;;;;;;;;4969878;28;25083;-65
2023/07/20 10:43:09;;;;;;;3.15;2.67;;;;;;;;;;4919912;28;25052;-66
2023/07/20 10:45:35;;;;;;;3.70;1.83;;;;;;;;;;4984957;28;25073;-65
2023/07/20 10:48:04;;;;;;;1.80;1.67;;;;;;;;;;4996468;28;25070;-64
2023/07/20 10:50:30;;;;;;;1.58;1.48;;;;;;;;;;4965379;28;25059;-65
2023/07/20 10:53:05;;;;;;;2.03;1.90;;;;;;;;;;4989682;28;25071;-64
2023/07/20 10:55:31;;;;;;;2.15;1.50;;;;;;;;;;4991162;28;25048;-64
2023/07/20 10:58:11;;;;;;;2.00;1.77;;;;;;;;;;4983725;28;25136;-65
2023/07/20 11:00:37;;;;;;;2.88;2.17;;;;;;;;;;4971608;28;25145;-65
2023/07/20 11:03:03;;;;;;;2.40;1.83;;;;;;;;;;4969841;28;25062;-63
2023/07/20 11:05:40;;;;;;;3.13;2.20;;;;;;;;;;4970991;28;24715;-65
2023/07/20 11:08:09;;;;;;;2.40;2.20;;;;;;;;;;4971127;28;25129;-65
2023/07/20 11:10:35;;;;;;;2.30;2.10;;;;;;;;;;4974640;28;25081;-64
2023/07/20 11:13:16;;;;;;;3.67;2.17;;;;;;;;;;4988417;28;25149;-64
2023/07/20 11:16:09;;;;;;;3.65;1.98;;;;;;;;;;4975443;28;25115;-65
2023/07/20 11:18:39;;;;;;;3.60;2.00;;;;;;;;;;4966751;28;25072;-65
2023/07/20 11:21:07;;;;;;;6.47;2.40;;;;;;;;;;4974359;28;25108;-65
2023/07/20 11:23:34;;;;;;;2.38;2.10;;;;;;;;;;4996948;28;25139;-63
2023/07/20 11:26:00;;;;;;;4.35;2.17;;;;;;;;;;4989037;28;25091;-63
2023/07/20 11:28:26;;;;;;;6.03;2.10;;;;;;;;;;4983255;28;25072;-64
2023/07/20 11:30:56;;;;;;;2.08;1.92;;;;;;;;;;4976982;28;25077;-63
2023/07/20 11:33:22;;;;;;;2.05;1.77;;;;;;;;;;4975739;28;25076;-64
2023/07/20 11:35:53;;;;;;;2.03;1.90;;;;;;;;;;4970853;28;25065;-65
2023/07/20 11:38:19;;;;;;;2.30;2.03;;;;;;;;;;4970357;28;25095;-63
2023/07/20 11:40:45;;;;;;;5.78;2.15;;;;;;;;;;4964516;28;25139;-64
2023/07/20 11:43:12;;;;;;;1.50;1.40;;;;;;;;;;4967659;28;25051;-63
2023/07/20 11:45:38;;;;;;;1.40;1.30;;;;;;;;;;4969967;28;25073;-64
2023/07/20 11:48:04;;;;;;;3.33;1.50;;;;;;;;;;4967925;28;25062;-63
2023/07/20 11:50:30;;;;;;;4.78;1.55;;;;;;;;;;4964905;28;25068;-64
2023/07/20 11:52:57;;;;;;;1.90;1.80;;;;;;;;;;4969829;28;25067;-64
2023/07/20 11:55:23;;;;;;;2.15;1.42;;;;;;;;;;4969761;28;25154;-64
2023/07/20 11:58:05;;;;;;;5.00;1.75;;;;;;;;;;4966691;28;25091;-64
2023/07/20 12:00:31;;;;;;;4.70;1.80;;;;;;;;;;4969222;28;25054;-64
2023/07/20 12:02:57;;;;;;;1.80;1.60;;;;;;;;;;4968999;28;25066;-64
2023/07/20 12:05:23;;;;;;;1.65;1.40;;;;;;;;;;4969549;28;25053;-64
2023/07/20 12:07:52;;;;;;;2.53;1.60;;;;;;;;;;4985204;28;25067;-64
2023/07/20 12:10:24;;;;;;;4.15;1.25;;;;;;;;;;4982695;28;25148;-66
2023/07/20 12:12:49;;;;;;;;;;;;;;;;;;4977940;28;25090;-63
2023/07/20 12:15:16;;;;;;;3.55;1.10;;;;;;;;;;4966068;28;25110;-63
2023/07/20 12:17:43;;;;;;;2.05;1.40;;;;;;;;;;4976001;28;25079;-64
2023/07/20 12:20:10;;;;;;;1.45;1.10;;;;;;;;;;4972489;28;25147;-65
2023/07/20 12:22:44;;;;;;;1.30;1.02;;;;;;;;;;4986964;28;25091;-64
2023/07/20 12:25:10;;;;;;;2.88;1.15;;;;;;;;;;4979622;28;25096;-64
2023/07/20 12:27:41;;;;;;;3.90;1.38;;;;;;;;;;4967133;28;25145;-66
2023/07/20 12:30:07;;;;;;;2.15;1.08;;;;;;;;;;4970573;28;25123;-64
2023/07/20 12:32:34;;;;;;;3.03;0.80;;;;;;;;;;4977996;28;25084;-63
2023/07/20 12:35:00;;;;;;;3.92;1.30;;;;;;;;;;4968992;28;25058;-64
2023/07/20 12:37:26;;;;;;;3.35;1.00;;;;;;;;;;4978056;28;25055;-64
2023/07/20 12:39:52;;;;;;;1.20;1.10;;;;;;;;;;4974767;28;25095;-63
2023/07/20 12:42:18;;;;;;;1.10;0.90;;;;;;;;;;4974973;28;25087;-64
2023/07/20 12:44:44;;;;;;;1.48;1.10;;;;;;;;;;4983157;28;25052;-65
2023/07/20 12:47:10;;;;;;;2.25;1.13;;;;;;;;;;4982555;28;25058;-65
2023/07/20 12:49:36;;;;;;;1.92;1.20;;;;;;;;;;4980256;28;25074;-64
2023/07/20 12:52:03;;;;;;;1.55;0.90;;;;;;;;;;4978680;28;25116;-64
2023/07/20 12:54:30;;;;;;;2.83;0.93;;;;;;;;;;4973034;28;25061;-65
2023/07/20 12:56:56;;;;;;;3.03;1.10;;;;;;;;;;4987991;28;25077;-64
2023/07/20 12:59:22;;;;;;;1.60;1.15;;;;;;;;;;4989252;28;25063;-64
2023/07/20 13:01:48;;;;;;;12.25;1.55;;;;;;;;;;4988678;28;25107;-63
2023/07/20 13:04:14;;;;;;;1.52;1.00;;;;;;;;;;4981338;28;25054;-63
2023/07/20 13:06:41;;;;;;;1.48;1.05;;;;;;;;;;4966730;28;25077;-63
2023/07/20 13:09:07;;;;;;;1.58;0.88;;;;;;;;;;4968048;28;25060;-63
2023/07/20 13:11:33;;;;;;;1.17;1.08;;;;;;;;;;4968721;28;25086;-64
2023/07/20 13:13:59;;;;;;;1.25;0.93;;;;;;;;;;4966400;28;25069;-64
2023/07/20 13:16:25;;;;;;;1.40;0.93;;;;;;;;;;4969892;28;25069;-63
2023/07/20 13:18:51;;;;;;;1.33;0.90;;;;;;;;;;4984264;28;25056;-63
2023/07/20 13:21:20;;;;;;;1.65;1.10;;;;;;;;;;4976177;28;25058;-63
2023/07/20 13:23:46;;;;;;;2.08;0.82;;;;;;;;;;4997791;28;25066;-64
2023/07/20 13:26:12;;;;;;;1.02;0.95;;;;;;;;;;4986828;28;25057;-63
2023/07/20 13:28:38;;;;;;;2.10;1.17;;;;;;;;;;4987231;28;25090;-64
2023/07/20 13:31:04;;;;;;;1.23;1.10;;;;;;;;;;4975474;28;25116;-63
2023/07/20 13:33:30;;;;;;;2.15;1.10;;;;;;;;;;4967703;28;25070;-65
2023/07/20 13:35:56;;;;;;;4.68;1.23;;;;;;;;;;4957858;28;25076;-62
2023/07/20 13:38:22;;;;;;;3.70;1.27;;;;;;;;;;4971564;28;25065;-63
2023/07/20 13:40:48;;;;;;;2.10;1.38;;;;;;;;;;4972079;28;25058;-63
2023/07/20 13:43:14;;;;;;;1.02;1.00;;;;;;;;;;4968783;28;25129;-63
2023/07/20 13:45:40;;;;;;;4.82;1.10;;;;;;;;;;4962244;28;25081;-64
2023/07/20 13:48:06;;;;;;;1.10;0.98;;;;;;;;;;4958030;28;25051;-62
2023/07/20 13:50:32;;;;;;;5.85;1.20;;;;;;;;;;4952709;28;25134;-64
2023/07/20 13:52:58;;;;;;;2.90;1.00;;;;;;;;;;4956831;28;25126;-63
2023/07/20 13:55:23;;;;;;;3.35;1.00;;;;;;;;;;4972234;28;25150;-63
2023/07/20 13:57:50;;;;;;;0.82;0.77;;;;;;;;;;4957721;28;25081;-63
2023/07/20 14:00:17;;;;;;;5.78;1.10;;;;;;;;;;4960396;28;25055;-63
2023/07/20 14:02:43;;;;;;;2.13;0.90;;;;;;;;;;4968479;28;25073;-64
2023/07/20 14:05:10;;;;;;;1.20;1.00;;;;;;;;;;4961350;28;25060;-63
2023/07/20 14:07:36;;;;;;;0.70;0.63;;;;;;;;;;4983427;28;25134;-63
2023/07/20 14:10:02;;;;;;;1.42;1.10;;;;;;;;;;4984320;28;25067;-64
2023/07/20 14:12:28;;;;;;;1.42;0.80;;;;;;;;;;4987636;28;25076;-63
2023/07/20 14:14:56;;;;;;;1.70;0.90;;;;;;;;;;4985358;28;25080;-62
2023/07/20 14:17:22;;;;;;;0.93;0.93;;;;;;;;;;4980372;28;25054;-63
2023/07/20 14:19:48;;;;;;;2.53;1.10;;;;;;;;;;4984280;28;25069;-62
2023/07/20 14:22:14;;;;;;;1.50;1.20;;;;;;;;;;4983086;28;25053;-63
2023/07/20 14:24:40;;;;;;;3.63;1.48;;;;;;;;;;4983717;28;25046;-63
2023/07/20 14:27:06;;;;;;;1.42;1.10;;;;;;;;;;4983536;28;25147;-63
2023/07/20 14:29:32;;;;;;;2.13;0.88;;;;;;;;;;4984943;28;25140;-64
2023/07/20 14:31:58;;;;;;;4.30;1.25;;;;;;;;;;4985603;28;25075;-62
2023/07/20 14:34:24;;;;;;;1.98;1.13;;;;;;;;;;4984144;28;25122;-63
2023/07/20 14:36:51;;;;;;;1.63;0.98;;;;;;;;;;4982434;28;25461;-63